Time;durP1;ratioP1;P1;durP2;ratioP2;P2;SDS_P1;SDS_P2;PMS_P1;PMS_P2;Temp;Humidity;BMP_temperature;BMP_pressure;BME280_temperature;BME280_humidity;BME280_pressure;Samples;Min_cycle;Max_cycle;Signal;HPM_P1;HPM_P2
2024/03/11 00:00:43;;;;;;;6.00;2.80;;;;;;;-1.84;53.65;100610.84;105926;1254;71551;-73
2024/03/11 00:03:12;;;;;;;5.90;2.60;;;;;;;-1.87;53.62;100614.59;105822;1256;60501;-73
2024/03/11 00:05:40;;;;;;;6.40;2.80;;;;;;;-1.90;53.69;100616.09;106283;1256;60622;-74
2024/03/11 00:08:09;;;;;;;7.00;3.10;;;;;;;-1.92;53.73;100617.22;108005;1253;76202;-72
2024/03/11 00:10:38;;;;;;;4.40;2.50;;;;;;;-1.93;53.84;100619.91;108383;1253;69028;-72
2024/03/11 00:13:10;;;;;;;6.70;2.40;;;;;;;-1.93;53.84;100624.23;105933;1254;71081;-72
2024/03/11 00:15:39;;;;;;;7.10;2.70;;;;;;;-1.94;53.86;100628.79;105864;1255;60536;-75
2024/03/11 00:18:08;;;;;;;4.80;2.40;;;;;;;-1.95;53.86;100632.31;105754;1254;60354;-74
2024/03/11 00:20:36;;;;;;;4.80;2.20;;;;;;;-1.97;53.91;100633.42;105792;1253;74006;-74
2024/03/11 00:23:03;;;;;;;3.30;2.20;;;;;;;-2.00;53.94;100635.79;105687;1257;69195;-73
2024/03/11 00:25:31;;;;;;;4.50;2.40;;;;;;;-2.01;53.73;100635.17;105809;1257;71745;-74
2024/03/11 00:27:59;;;;;;;6.10;2.60;;;;;;;-2.04;54.06;100635.65;105622;1253;60417;-73
2024/03/11 00:30:27;;;;;;;4.40;2.40;;;;;;;-2.06;54.16;100643.55;105627;1254;60508;-73
2024/03/11 00:32:54;;;;;;;5.20;2.20;;;;;;;-2.09;54.19;100644.17;105607;1252;73853;-76
2024/03/11 00:35:24;;;;;;;5.00;2.10;;;;;;;-2.12;54.35;100647.77;105613;1257;68792;-75
2024/03/11 00:37:52;;;;;;;5.70;2.30;;;;;;;-2.13;54.40;100651.66;105591;1254;71169;-74
2024/03/11 00:40:19;;;;;;;5.50;2.50;;;;;;;-2.14;54.36;100653.79;105650;1254;60485;-72
2024/03/11 00:42:47;;;;;;;6.50;1.80;;;;;;;-2.15;54.38;100659.05;105655;1254;60478;-74
2024/03/11 00:45:15;;;;;;;5.60;2.10;;;;;;;-2.17;54.64;100661.70;105591;1254;73847;-74
2024/03/11 00:47:43;;;;;;;5.80;2.30;;;;;;;-2.18;54.58;100664.36;105763;1256;68972;-75
2024/03/11 00:50:12;;;;;;;5.10;2.20;;;;;;;-2.19;54.58;100665.45;105848;1254;72489;-74
2024/03/11 00:52:42;;;;;;;3.60;1.60;;;;;;;-2.21;54.77;100666.90;105801;1256;60481;-73
2024/03/11 00:55:11;;;;;;;3.70;2.00;;;;;;;-2.22;54.89;100669.38;105899;1256;60347;-75
2024/03/11 00:57:39;;;;;;;4.90;2.20;;;;;;;-2.24;54.94;100669.61;105811;1256;73786;-74
2024/03/11 01:00:11;;;;;;;4.80;2.00;;;;;;;-2.25;55.08;100669.66;106207;1253;70580;-73
2024/03/11 01:02:41;;;;;;;4.50;2.20;;;;;;;-2.26;55.13;100672.83;107910;1253;71376;-72
2024/03/11 01:05:09;;;;;;;5.40;2.40;;;;;;;-2.26;55.38;100678.39;107182;1254;59269;-74
2024/03/11 01:07:37;;;;;;;4.30;2.10;;;;;;;-2.27;55.60;100675.30;106164;1256;60731;-73
2024/03/11 01:10:14;;;;;;;3.90;1.90;;;;;;;-2.30;55.66;100676.83;105679;1255;74108;-73
2024/03/11 01:12:43;;;;;;;7.30;2.50;;;;;;;-2.32;55.72;100680.37;105727;1257;69254;-73
2024/03/11 01:15:10;;;;;;;5.70;2.10;;;;;;;-2.33;55.86;100682.86;105794;1251;72887;-76
2024/03/11 01:17:39;;;;;;;4.20;2.10;;;;;;;-2.36;56.08;100684.86;105651;1254;60545;-73
2024/03/11 01:20:15;;;;;;;3.50;2.10;;;;;;;-2.39;56.14;100685.14;105666;1257;60283;-76
2024/03/11 01:22:44;;;;;;;4.20;2.00;;;;;;;-2.40;56.32;100683.83;105772;1254;73849;-74
2024/03/11 01:25:11;;;;;;;3.30;1.70;;;;;;;-2.42;56.33;100681.66;105654;1256;71324;-76
2024/03/11 01:27:41;;;;;;;4.10;2.00;;;;;;;-2.44;56.47;100682.27;105656;1253;72688;-75
2024/03/11 01:30:10;;;;;;;4.40;2.30;;;;;;;-2.46;56.62;100688.21;105787;1256;60863;-73
2024/03/11 01:32:44;;;;;;;8.20;2.80;;;;;;;-2.47;56.71;100688.10;105901;1254;60629;-74
2024/03/11 01:35:13;;;;;;;5.80;2.80;;;;;;;-2.49;56.75;100689.73;105987;1256;73927;-74
2024/03/11 01:37:41;;;;;;;4.50;2.50;;;;;;;-2.50;56.85;100689.63;106771;1256;68842;-74
2024/03/11 01:40:15;;;;;;;5.60;2.20;;;;;;;-2.52;56.87;100692.28;106668;1254;72659;-75
2024/03/11 01:42:43;;;;;;;4.80;2.30;;;;;;;-2.53;56.94;100700.84;105763;1259;60604;-74
2024/03/11 01:45:12;;;;;;;3.60;1.80;;;;;;;-2.53;57.00;100701.70;105781;1254;60538;-73
2024/03/11 01:47:42;;;;;;;3.60;1.80;;;;;;;-2.55;57.21;100702.27;105863;1256;73837;-76
2024/03/11 01:50:13;;;;;;;6.30;1.90;;;;;;;-2.55;57.17;100703.00;106050;1259;69333;-75
2024/03/11 01:52:56;;;;;;;4.50;1.60;;;;;;;-2.56;57.23;100705.80;106214;1258;71597;-75
2024/03/11 01:55:25;;;;;;;2.10;1.50;;;;;;;-2.58;57.44;100705.19;107786;1258;60210;-74
2024/03/11 01:57:54;;;;;;;2.40;1.50;;;;;;;-2.59;57.42;100706.41;107826;1253;60403;-73
2024/03/11 02:00:22;;;;;;;7.20;2.10;;;;;;;-2.59;57.58;100712.67;106244;1256;72597;-75
2024/03/11 02:02:53;;;;;;;3.30;1.60;;;;;;;-2.61;57.64;100715.52;105795;1254;68959;-75
2024/03/11 02:05:26;;;;;;;4.20;1.60;;;;;;;-2.62;57.88;100715.77;105784;1254;72691;-74
2024/03/11 02:08:01;;;;;;;3.50;1.60;;;;;;;-2.65;58.05;100717.91;105767;1254;60542;-75
2024/03/11 02:10:29;;;;;;;3.40;1.70;;;;;;;-2.66;58.24;100720.77;106034;1253;60619;-74
2024/03/11 02:12:58;;;;;;;5.40;2.00;;;;;;;-2.68;58.47;100728.29;106072;1253;72576;-73
2024/03/11 02:15:27;;;;;;;5.80;2.60;;;;;;;-2.70;58.45;100725.10;106357;1253;68857;-74
2024/03/11 02:17:55;;;;;;;4.30;2.60;;;;;;;-2.72;58.51;100722.20;105950;1254;73204;-74
2024/03/11 02:20:23;;;;;;;9.50;2.90;;;;;;;-2.74;58.71;100719.15;105971;1256;60540;-76
2024/03/11 02:22:55;;;;;;;5.50;3.20;;;;;;;-2.75;58.86;100723.88;105746;1254;60450;-76
2024/03/11 02:25:27;;;;;;;10.40;3.70;;;;;;;-2.77;58.96;100725.51;105890;1254;73888;-74
2024/03/11 02:28:00;;;;;;;7.30;2.90;;;;;;;-2.79;59.04;100725.23;106031;1253;70597;-76
2024/03/11 02:30:28;;;;;;;7.30;2.90;;;;;;;-2.80;59.06;100729.80;105679;1260;72670;-75
2024/03/11 02:32:56;;;;;;;6.70;3.20;;;;;;;-2.83;59.37;100729.55;105996;1256;60552;-74
2024/03/11 02:35:26;;;;;;;6.00;2.50;;;;;;;-2.84;59.33;100730.30;105865;1253;60333;-75
2024/03/11 02:37:54;;;;;;;7.70;3.30;;;;;;;-2.85;59.48;100730.87;105767;1254;71857;-74
2024/03/11 02:40:26;;;;;;;8.40;3.10;;;;;;;-2.87;59.58;100728.85;105698;1254;70986;-73
2024/03/11 02:42:56;;;;;;;10.80;3.20;;;;;;;-2.88;59.79;100730.62;105979;1257;74329;-76
2024/03/11 02:45:26;;;;;;;12.90;3.50;;;;;;;-2.89;59.84;100739.00;105812;1254;60428;-75
2024/03/11 02:47:54;;;;;;;8.90;3.40;;;;;;;-2.91;60.06;100738.55;106091;1254;60455;-74
2024/03/11 02:50:22;;;;;;;7.30;3.10;;;;;;;-2.93;60.28;100740.19;108682;1254;74745;-72
2024/03/11 02:52:53;;;;;;;8.80;3.40;;;;;;;-2.94;60.51;100741.10;108466;1253;68837;-76
2024/03/11 02:55:22;;;;;;;6.90;3.50;;;;;;;-2.94;60.66;100744.56;105757;1254;71749;-77
2024/03/11 02:57:51;;;;;;;10.70;4.20;;;;;;;-2.95;60.88;100747.19;105943;1254;60529;-76
2024/03/11 03:00:19;;;;;;;11.20;3.80;;;;;;;-2.98;60.78;100747.27;105858;1254;60624;-74
2024/03/11 03:02:49;;;;;;;8.60;4.00;;;;;;;-2.98;61.04;100747.11;105721;1254;72512;-77
2024/03/11 03:05:18;;;;;;;9.30;4.30;;;;;;;-2.99;61.18;100750.96;105996;1256;70137;-75
2024/03/11 03:07:46;;;;;;;7.30;4.00;;;;;;;-3.00;61.49;100749.95;105708;1256;71051;-73
2024/03/11 03:10:14;;;;;;;9.30;3.50;;;;;;;-3.02;61.61;100746.41;106068;1253;60865;-75
2024/03/11 03:12:42;;;;;;;10.30;4.60;;;;;;;-3.06;61.79;100746.22;106757;1252;60373;-74
2024/03/11 03:15:10;;;;;;;8.60;4.30;;;;;;;-3.09;61.80;100741.99;106996;1252;73838;-76
2024/03/11 03:17:38;;;;;;;8.90;4.60;;;;;;;-3.10;62.01;100739.77;105818;1252;70356;-74
2024/03/11 03:20:10;;;;;;;11.40;4.80;;;;;;;-3.11;62.02;100739.09;106132;1254;71763;-75
2024/03/11 03:22:39;;;;;;;15.40;5.60;;;;;;;-3.12;61.98;100737.58;106119;1255;60534;-73
2024/03/11 03:25:07;;;;;;;13.30;5.30;;;;;;;-3.13;62.24;100739.52;106056;1252;60492;-75
2024/03/11 03:27:35;;;;;;;8.60;4.50;;;;;;;-3.15;62.36;100746.16;105918;1259;73872;-74
2024/03/11 03:30:03;;;;;;;10.10;4.10;;;;;;;-3.16;62.53;100742.58;106012;1257;69055;-75
2024/03/11 03:32:31;;;;;;;11.30;4.20;;;;;;;-3.19;62.69;100744.92;105820;1256;71412;-75
2024/03/11 03:34:59;;;;;;;12.70;4.00;;;;;;;-3.21;62.71;100748.46;106181;1256;60575;-76
2024/03/11 03:37:27;;;;;;;7.10;3.60;;;;;;;-3.23;62.82;100747.85;105896;1259;60344;-76
2024/03/11 03:39:54;;;;;;;6.20;3.50;;;;;;;-3.24;63.07;100755.17;106200;1254;74464;-73
2024/03/11 03:42:23;;;;;;;7.60;3.20;;;;;;;-3.26;63.17;100755.24;106536;1254;68978;-77
2024/03/11 03:44:51;;;;;;;12.30;4.30;;;;;;;-3.28;63.40;100757.74;108428;1254;71332;-73
2024/03/11 03:47:19;;;;;;;9.70;4.00;;;;;;;-3.28;63.44;100756.55;108073;1253;60533;-75
2024/03/11 03:49:48;;;;;;;9.00;4.20;;;;;;;-3.28;63.44;100750.83;106365;1254;60954;-75
2024/03/11 03:52:15;;;;;;;9.20;4.60;;;;;;;-3.28;63.62;100752.91;106368;1257;73841;-74
2024/03/11 03:54:43;;;;;;;10.30;4.40;;;;;;;-3.29;63.75;100756.89;106199;1257;68718;-74
2024/03/11 03:57:10;;;;;;;8.40;3.60;;;;;;;-3.30;63.74;100754.69;106144;1254;71390;-74
2024/03/11 03:59:38;;;;;;;5.30;3.50;;;;;;;-3.30;63.99;100754.52;106264;1254;60540;-73
2024/03/11 04:02:05;;;;;;;9.30;3.70;;;;;;;-3.31;64.02;100756.65;106307;1253;60475;-75
2024/03/11 04:04:37;;;;;;;7.50;3.70;;;;;;;-3.33;64.01;100755.34;106098;1254;72993;-75
2024/03/11 04:07:05;;;;;;;7.00;3.00;;;;;;;-3.34;64.11;100759.71;105744;1258;68790;-75
2024/03/11 04:09:32;;;;;;;5.40;2.90;;;;;;;-3.37;64.56;100762.03;105711;1254;74287;-73
2024/03/11 04:12:03;;;;;;;7.80;3.40;;;;;;;-3.40;64.61;100764.20;105792;1254;62380;-74
2024/03/11 04:14:36;;;;;;;6.90;3.50;;;;;;;-3.41;64.54;100762.88;105660;1254;60489;-74
2024/03/11 04:17:06;;;;;;;6.60;3.20;;;;;;;-3.42;64.77;100763.45;105944;1253;73839;-75
2024/03/11 04:19:34;;;;;;;8.00;3.70;;;;;;;-3.43;64.79;100771.42;105773;1259;68053;-76
2024/03/11 04:22:03;;;;;;;7.00;3.30;;;;;;;-3.43;64.77;100774.39;105740;1257;72690;-73
2024/03/11 04:24:31;;;;;;;6.60;3.00;;;;;;;-3.44;65.01;100770.27;105930;1259;60412;-75
2024/03/11 04:26:59;;;;;;;5.50;2.80;;;;;;;-3.45;65.05;100773.91;105760;1253;61026;-73
2024/03/11 04:29:27;;;;;;;6.60;3.00;;;;;;;-3.46;65.01;100773.08;106150;1253;71663;-74
2024/03/11 04:31:57;;;;;;;7.50;3.50;;;;;;;-3.46;65.17;100776.73;106159;1259;68854;-74
2024/03/11 04:34:26;;;;;;;6.70;3.20;;;;;;;-3.46;65.25;100778.48;105834;1259;71331;-76
2024/03/11 04:36:54;;;;;;;7.30;3.30;;;;;;;-3.37;65.27;100781.25;106642;1255;60508;-73
2024/03/11 04:39:21;;;;;;;4.70;2.70;;;;;;;-3.23;65.12;100782.33;108127;1256;60377;-73
2024/03/11 04:41:49;;;;;;;6.60;2.90;;;;;;;-3.18;65.29;100783.70;106975;1256;71602;-74
2024/03/11 04:44:17;;;;;;;5.10;3.10;;;;;;;-3.16;65.27;100787.82;105766;1259;69069;-75
2024/03/11 04:46:45;;;;;;;7.40;3.40;;;;;;;-3.15;65.24;100789.14;106302;1257;70931;-75
2024/03/11 04:49:13;;;;;;;6.30;3.70;;;;;;;-3.12;65.25;100788.89;106496;1257;60514;-75
2024/03/11 04:51:40;;;;;;;5.40;3.30;;;;;;;-3.10;65.16;100785.88;105848;1260;60435;-75
2024/03/11 04:54:08;;;;;;;6.50;3.30;;;;;;;-3.09;65.22;100789.45;105828;1256;73983;-75
2024/03/11 04:56:36;;;;;;;7.30;3.20;;;;;;;-3.06;65.11;100792.14;105698;1260;69101;-75
2024/03/11 04:59:04;;;;;;;7.10;3.30;;;;;;;-3.04;65.09;100794.14;105626;1257;70387;-75
2024/03/11 05:01:32;;;;;;;6.60;3.50;;;;;;;-3.03;65.13;100792.51;105821;1254;61172;-74
2024/03/11 05:03:59;;;;;;;6.30;3.10;;;;;;;-3.01;65.06;100793.50;107039;1256;60582;-74
2024/03/11 05:06:30;;;;;;;5.60;3.20;;;;;;;-2.99;65.01;100789.26;108019;1254;72649;-76
2024/03/11 05:08:58;;;;;;;6.30;2.90;;;;;;;-2.94;65.09;100797.92;108213;1253;71170;-75
2024/03/11 05:11:27;;;;;;;4.70;2.70;;;;;;;-2.89;65.01;100796.36;107819;1260;71285;-73
2024/03/11 05:13:55;;;;;;;5.80;3.20;;;;;;;-2.85;64.87;100800.38;108011;1253;60923;-74
2024/03/11 05:16:23;;;;;;;4.50;2.90;;;;;;;-2.79;64.77;100800.52;108425;1253;59199;-74
2024/03/11 05:18:52;;;;;;;5.80;3.20;;;;;;;-2.74;64.65;100799.29;108562;1252;72479;-75
2024/03/11 05:21:20;;;;;;;6.10;2.70;;;;;;;-2.67;64.46;100809.27;108265;1254;68701;-74
2024/03/11 05:23:48;;;;;;;6.90;3.30;;;;;;;-2.60;64.22;100809.48;107764;1254;71367;-74
2024/03/11 05:26:17;;;;;;;4.60;2.90;;;;;;;-2.52;64.04;100810.95;107946;1253;60255;-75
2024/03/11 05:28:45;;;;;;;7.70;3.50;;;;;;;-2.46;63.92;100811.58;107868;1253;60313;-75
2024/03/11 05:31:12;;;;;;;7.80;3.50;;;;;;;-2.41;63.70;100816.08;108207;1253;73839;-75
2024/03/11 05:33:40;;;;;;;7.60;3.30;;;;;;;-2.35;63.57;100820.52;108518;1252;68726;-75
2024/03/11 05:36:08;;;;;;;7.00;3.30;;;;;;;-2.27;63.45;100824.58;108531;1254;71056;-74
2024/03/11 05:38:36;;;;;;;7.20;3.70;;;;;;;-2.18;63.31;100829.58;108432;1253;60459;-74
2024/03/11 05:41:05;;;;;;;6.90;3.90;;;;;;;-2.09;62.97;100829.95;108367;1252;60344;-75
2024/03/11 05:43:33;;;;;;;5.90;3.50;;;;;;;-2.04;62.83;100834.95;108368;1252;73665;-74
2024/03/11 05:46:00;;;;;;;5.10;2.60;;;;;;;-1.98;62.61;100845.63;108383;1254;68996;-75
2024/03/11 05:48:28;;;;;;;5.00;3.20;;;;;;;-1.93;62.13;100845.07;108238;1254;73501;-76
2024/03/11 05:51:01;;;;;;;4.30;2.70;;;;;;;-1.87;61.78;100837.88;108103;1253;60527;-75
2024/03/11 05:53:30;;;;;;;7.30;3.30;;;;;;;-1.80;61.37;100837.98;108055;1252;59176;-75
2024/03/11 05:55:58;;;;;;;5.00;2.70;;;;;;;-1.74;60.97;100840.37;108253;1254;72599;-75
2024/03/11 05:58:26;;;;;;;5.90;3.30;;;;;;;-1.69;60.73;100840.45;108575;1253;70315;-76
2024/03/11 06:00:56;;;;;;;6.30;3.20;;;;;;;-1.62;60.53;100842.11;108268;1254;71200;-73
2024/03/11 06:03:24;;;;;;;4.50;3.00;;;;;;;-1.54;60.34;100845.59;107712;1256;61114;-71
2024/03/11 06:05:52;;;;;;;5.40;3.20;;;;;;;-1.46;59.86;100849.08;107723;1256;60917;-73
2024/03/11 06:08:21;;;;;;;5.30;3.00;;;;;;;-1.39;59.52;100849.83;108405;1252;74214;-73
2024/03/11 06:10:50;;;;;;;8.90;4.00;;;;;;;-1.31;59.23;100855.06;107963;1253;71364;-75
2024/03/11 06:13:17;;;;;;;7.20;3.70;;;;;;;-1.22;59.01;100857.27;108085;1254;71259;-74
2024/03/11 06:15:45;;;;;;;6.60;3.70;;;;;;;-1.13;58.28;100861.96;108135;1256;60376;-75
2024/03/11 06:18:13;;;;;;;5.70;3.30;;;;;;;-1.06;57.76;100866.67;108364;1256;60371;-74
2024/03/11 06:20:42;;;;;;;6.50;3.70;;;;;;;-1.01;57.24;100868.55;108389;1254;72505;-74
2024/03/11 06:23:10;;;;;;;5.60;3.50;;;;;;;-0.95;57.27;100866.23;108189;1256;69284;-73
2024/03/11 06:25:37;;;;;;;7.00;4.00;;;;;;;-0.89;57.02;100869.60;108061;1253;71833;-73
2024/03/11 06:28:05;;;;;;;6.90;3.50;;;;;;;-0.80;56.78;100871.83;108819;1254;59067;-76
2024/03/11 06:30:34;;;;;;;6.50;3.80;;;;;;;-0.71;56.53;100871.27;108682;1254;59489;-74
2024/03/11 06:33:04;;;;;;;8.10;3.90;;;;;;;-0.63;56.19;100876.60;108438;1256;74042;-75
2024/03/11 06:35:32;;;;;;;7.90;4.60;;;;;;;-0.53;55.91;100882.45;108782;1253;70217;-75
2024/03/11 06:38:01;;;;;;;6.80;4.10;;;;;;;-0.45;55.56;100880.33;108499;1253;71120;-76
2024/03/11 06:40:31;;;;;;;10.20;4.40;;;;;;;-0.37;55.25;100884.51;108759;1252;60322;-75
2024/03/11 06:43:00;;;;;;;10.40;4.90;;;;;;;-0.29;54.85;100885.72;108489;1252;59256;-73
2024/03/11 06:45:29;;;;;;;11.70;5.30;;;;;;;-0.24;54.59;100893.47;108376;1254;74721;-75
2024/03/11 06:47:57;;;;;;;8.20;4.90;;;;;;;-0.18;54.03;100895.50;107695;1253;69180;-73
2024/03/11 06:50:25;;;;;;;8.20;5.00;;;;;;;-0.16;53.84;100888.44;107714;1254;71470;-73
2024/03/11 06:52:54;;;;;;;8.40;5.00;;;;;;;-0.16;53.36;100889.48;107992;1256;60176;-74
2024/03/11 06:55:22;;;;;;;8.70;4.70;;;;;;;-0.17;52.93;100900.14;108022;1254;60419;-74
2024/03/11 06:57:50;;;;;;;8.30;5.00;;;;;;;-0.20;53.03;100894.68;107752;1254;73816;-74
2024/03/11 07:00:18;;;;;;;7.50;5.00;;;;;;;-0.22;53.26;100889.72;107303;1252;71089;-73
2024/03/11 07:02:48;;;;;;;9.30;5.00;;;;;;;-0.23;53.02;100890.27;107459;1254;71424;-74
2024/03/11 07:05:17;;;;;;;8.50;5.10;;;;;;;-0.24;53.17;100894.00;108155;1252;61464;-75
2024/03/11 07:07:46;;;;;;;7.30;4.60;;;;;;;-0.21;53.01;100899.81;108038;1254;60795;-75
2024/03/11 07:10:15;;;;;;;6.70;4.80;;;;;;;-0.23;52.51;100895.17;107655;1254;71849;-73
2024/03/11 07:12:44;;;;;;;8.80;5.50;;;;;;;-0.22;52.75;100887.96;107520;1254;68990;-75
2024/03/11 07:15:12;;;;;;;8.10;4.90;;;;;;;-0.15;52.75;100896.77;107883;1252;73451;-75
2024/03/11 07:17:41;;;;;;;5.80;4.40;;;;;;;-0.05;52.43;100907.95;108468;1256;60403;-73
2024/03/11 07:20:13;;;;;;;9.10;5.20;;;;;;;0.04;51.67;100904.04;108942;1253;60450;-77
2024/03/11 07:22:42;;;;;;;9.20;4.20;;;;;;;0.09;51.35;100898.20;108998;1252;72617;-76
2024/03/11 07:25:16;;;;;;;5.70;3.60;;;;;;;0.14;51.16;100906.86;109037;1254;68768;-75
2024/03/11 07:27:47;;;;;;;8.00;4.10;;;;;;;0.19;50.93;100906.27;109113;1253;73772;-76
2024/03/11 07:33:36;;;;;;;8.50;5.30;;;;;;;0.21;50.89;100909.66;104833;1291;600459;-76
2024/03/11 07:36:07;;;;;;;10.00;5.00;;;;;;;0.23;50.80;100907.85;107644;1263;59259;-79
2024/03/11 07:38:33;;;;;;;8.00;5.30;;;;;;;0.27;50.44;100907.98;108551;1257;59121;-76
2024/03/11 07:41:01;;;;;;;8.20;4.50;;;;;;;0.34;50.72;100913.23;108698;1257;70019;-77
2024/03/11 07:43:29;;;;;;;7.70;4.50;;;;;;;0.45;50.54;100926.13;108739;1257;68932;-77
2024/03/11 07:45:56;;;;;;;8.00;4.40;;;;;;;0.52;49.34;100925.95;108525;1256;256180;-77
2024/03/11 07:48:23;;;;;;;6.70;4.60;;;;;;;0.50;49.10;100921.02;109166;1254;58074;-77
2024/03/11 07:50:50;;;;;;;6.40;3.90;;;;;;;0.49;49.05;100928.36;109234;1254;59155;-77
2024/03/11 07:53:18;;;;;;;6.90;3.90;;;;;;;0.51;48.95;100926.88;109094;1257;71963;-77
2024/03/11 07:55:45;;;;;;;6.10;4.00;;;;;;;0.57;48.94;100920.98;109060;1257;69075;-76
2024/03/11 07:58:12;;;;;;;8.30;4.00;;;;;;;0.66;48.93;100913.78;108657;1256;71015;-76
2024/03/11 08:00:42;;;;;;;7.50;4.00;;;;;;;0.78;49.07;100918.57;108976;1255;59419;-78
2024/03/11 08:03:09;;;;;;;6.00;3.90;;;;;;;0.95;48.79;100929.95;109172;1254;58193;-78
2024/03/11 08:05:38;;;;;;;4.50;3.30;;;;;;;1.09;48.67;100910.60;109078;1254;71244;-78
2024/03/11 08:08:08;;;;;;;6.30;3.90;;;;;;;1.20;48.09;100917.87;108258;1254;69530;-77
2024/03/11 08:10:35;;;;;;;5.30;3.90;;;;;;;1.28;48.12;100910.65;108491;1254;72479;-75
2024/03/11 08:13:02;;;;;;;5.30;3.70;;;;;;;1.35;47.70;100913.73;108094;1254;59573;-77
2024/03/11 08:15:29;;;;;;;6.50;3.80;;;;;;;1.45;47.47;100911.67;108756;1254;61570;-77
2024/03/11 08:17:56;;;;;;;6.20;4.30;;;;;;;1.53;47.43;100913.70;109273;1254;72989;-75
2024/03/11 08:20:24;;;;;;;6.40;3.90;;;;;;;1.64;46.88;100913.27;109372;1254;68656;-76
2024/03/11 08:22:52;;;;;;;4.60;3.10;;;;;;;1.75;46.54;100916.52;109287;1254;70493;-76
2024/03/11 08:25:22;;;;;;;5.70;3.30;;;;;;;1.85;46.21;100914.79;109053;1254;59488;-77
2024/03/11 08:27:52;;;;;;;6.20;4.10;;;;;;;1.93;46.22;100908.73;109312;1254;59005;-76
2024/03/11 08:30:27;;;;;;;8.10;4.50;;;;;;;2.03;46.41;100896.14;109270;1256;70890;-73
2024/03/11 08:32:56;;;;;;;5.50;3.60;;;;;;;2.15;46.63;100900.02;109424;1254;69217;-75
2024/03/11 08:35:23;;;;;;;7.40;4.10;;;;;;;2.35;46.23;100903.63;109376;1255;72682;-73
2024/03/11 08:37:50;;;;;;;5.40;3.70;;;;;;;2.56;46.17;100906.11;109400;1255;58424;-74
2024/03/11 08:40:19;;;;;;;7.20;4.50;;;;;;;2.79;45.50;100906.00;109441;1254;59108;-76
2024/03/11 08:42:50;;;;;;;6.60;4.10;;;;;;;2.93;44.90;100906.56;109342;1255;71761;-75
2024/03/11 08:45:22;;;;;;;6.20;4.30;;;;;;;3.09;44.80;100918.27;109354;1254;71176;-75
2024/03/11 08:47:49;;;;;;;5.20;3.60;;;;;;;3.22;44.00;100916.78;109282;1255;72461;-75
2024/03/11 08:50:16;;;;;;;7.80;4.50;;;;;;;3.23;43.56;100913.22;109252;1256;58252;-75
2024/03/11 08:52:49;;;;;;;7.00;3.30;;;;;;;3.23;43.66;100911.83;109499;1254;59084;-76
2024/03/11 08:55:16;;;;;;;10.70;4.50;;;;;;;3.34;43.48;100913.79;109185;1255;73095;-80
2024/03/11 08:57:49;;;;;;;6.20;4.30;;;;;;;3.50;43.69;100912.81;109367;1254;68053;-75
2024/03/11 09:00:16;;;;;;;7.00;4.60;;;;;;;3.74;43.16;100914.33;109334;1254;71474;-73
2024/03/11 09:02:44;;;;;;;7.90;4.00;;;;;;;3.97;43.15;100915.30;108999;1255;58034;-75
2024/03/11 09:05:17;;;;;;;5.40;3.60;;;;;;;4.23;42.58;100915.09;109213;1257;60652;-75
2024/03/11 09:07:52;;;;;;;6.60;4.20;;;;;;;4.54;41.94;100928.16;109432;1254;72838;-75
2024/03/11 09:10:19;;;;;;;6.40;3.60;;;;;;;4.72;40.58;100927.20;109339;1254;70137;-77
2024/03/11 09:12:49;;;;;;;5.80;3.90;;;;;;;4.85;40.07;100922.30;109080;1254;70950;-75
2024/03/11 09:15:18;;;;;;;6.80;4.00;;;;;;;5.12;40.15;100911.49;109260;1253;57670;-76
2024/03/11 09:17:51;;;;;;;6.10;4.10;;;;;;;5.62;40.03;100912.64;109120;1254;59290;-77
2024/03/11 09:20:27;;;;;;;5.80;3.70;;;;;;;6.21;38.68;100908.81;109244;1255;72061;-77
2024/03/11 09:22:57;;;;;;;4.70;3.80;;;;;;;6.66;37.75;100905.70;109217;1256;70328;-78
2024/03/11 09:25:25;;;;;;;4.80;3.50;;;;;;;7.08;37.01;100899.58;109027;1257;70322;-79
2024/03/11 09:27:54;;;;;;;6.20;4.20;;;;;;;7.48;36.95;100896.85;109017;1257;59346;-77
2024/03/11 09:30:21;;;;;;;6.60;4.30;;;;;;;8.00;36.80;100898.19;109180;1255;59252;-77
2024/03/11 09:32:52;;;;;;;6.10;5.20;;;;;;;8.57;36.34;100900.46;108931;1257;71085;-79
2024/03/11 09:35:19;;;;;;;9.80;4.30;;;;;;;9.25;34.91;100897.47;108702;1256;69012;-78
2024/03/11 09:37:47;;;;;;;5.30;3.60;;;;;;;9.69;33.18;100896.34;108860;1256;71441;-75
2024/03/11 09:40:16;;;;;;;7.80;4.30;;;;;;;9.92;32.91;100896.27;108912;1257;59395;-77
2024/03/11 09:42:47;;;;;;;5.50;4.70;;;;;;;10.23;32.85;100892.05;108866;1256;60000;-76
2024/03/11 09:45:18;;;;;;;6.00;5.00;;;;;;;10.61;31.88;100882.49;108739;1256;72759;-75
2024/03/11 09:47:55;;;;;;;6.40;5.60;;;;;;;10.95;32.14;100878.77;108901;1256;69072;-74
2024/03/11 09:50:32;;;;;;;5.70;4.50;;;;;;;11.37;31.94;100871.83;108881;1257;72405;-76
2024/03/11 09:53:12;;;;;;;6.00;5.10;;;;;;;11.93;30.96;100878.21;109198;1256;60804;-79
2024/03/11 09:55:43;;;;;;;5.20;4.30;;;;;;;12.34;30.79;100874.06;109281;1259;59057;-78
2024/03/11 09:58:12;;;;;;;5.90;4.10;;;;;;;12.71;29.79;100868.64;108579;1258;71591;-78
2024/03/11 10:00:55;;;;;;;6.80;4.30;;;;;;;12.88;29.27;100873.98;108470;1256;69728;-80
2024/03/11 10:03:24;;;;;;;6.20;4.40;;;;;;;12.95;29.09;100878.05;108729;1257;72892;-77
2024/03/11 10:05:56;;;;;;;5.20;4.50;;;;;;;13.01;29.19;100878.75;109091;1255;59583;-78
2024/03/11 10:08:25;;;;;;;6.50;4.40;;;;;;;13.20;29.14;100865.27;108772;1257;59038;-77
2024/03/11 10:11:14;;;;;;;4.70;4.10;;;;;;;13.50;28.80;100856.64;108151;1256;72130;-79
2024/03/11 10:13:41;;;;;;;5.50;4.10;;;;;;;13.83;28.77;100851.77;107867;1256;71597;-79
2024/03/11 10:16:17;;;;;;;5.40;4.00;;;;;;;14.34;28.06;100855.44;107565;1257;71539;-79
2024/03/11 10:19:02;;;;;;;5.00;4.00;;;;;;;14.71;27.19;100845.27;108205;1257;60416;-78
2024/03/11 10:21:33;;;;;;;5.00;4.50;;;;;;;14.82;26.87;100841.46;108861;1256;59150;-80
2024/03/11 10:24:01;;;;;;;4.90;4.30;;;;;;;14.98;27.34;100842.58;108696;1256;71874;-79
2024/03/11 10:26:40;;;;;;;7.00;5.10;;;;;;;15.47;26.86;100839.67;108752;1255;69495;-80
2024/03/11 10:29:16;;;;;;;5.30;4.30;;;;;;;15.90;26.69;100850.31;108751;1256;72801;-78
2024/03/11 10:31:45;;;;;;;4.80;4.40;;;;;;;16.34;26.16;100849.60;108884;1256;60070;-76
2024/03/11 10:34:13;;;;;;;4.20;3.80;;;;;;;16.70;25.36;100841.77;108832;1256;61868;-77
2024/03/11 10:36:44;;;;;;;5.30;3.90;;;;;;;16.95;25.21;100842.77;109127;1256;72066;-77
2024/03/11 10:41:50;;;;;;;6.60;4.20;;;;;;;17.22;24.43;100833.73;108916;1256;71863;-73
2024/03/11 10:44:23;;;;;;;5.70;4.80;;;;;;;17.09;24.47;100839.67;108983;1255;59157;-75
2024/03/11 10:46:53;;;;;;;5.30;4.30;;;;;;;17.06;24.62;100828.90;109028;1256;58175;-82
2024/03/11 10:49:21;;;;;;;5.50;5.00;;;;;;;17.22;24.54;100827.91;108921;1257;71381;-82
2024/03/11 10:51:48;;;;;;;5.90;4.30;;;;;;;17.36;24.29;100820.44;109087;1256;69435;-83
2024/03/11 10:54:28;;;;;;;4.80;4.20;;;;;;;17.52;24.26;100822.00;109054;1257;70854;-78
2024/03/11 10:56:56;;;;;;;7.90;4.80;;;;;;;17.59;23.96;100823.50;109232;1255;58967;-80
2024/03/11 10:59:25;;;;;;;4.60;4.10;;;;;;;17.48;23.94;100811.94;109303;1253;59015;-80
2024/03/11 11:01:57;;;;;;;5.00;4.50;;;;;;;17.46;24.06;100810.89;109238;1254;71868;-78
2024/03/11 11:04:33;;;;;;;5.10;4.60;;;;;;;17.72;23.87;100821.14;109291;1253;69313;-79
2024/03/11 11:07:02;;;;;;;6.00;4.40;;;;;;;17.97;23.75;100812.42;108901;1253;71417;-76
2024/03/11 11:09:31;;;;;;;4.70;4.20;;;;;;;18.02;23.70;100805.06;108771;1254;59296;-77
2024/03/11 11:11:58;;;;;;;4.90;4.20;;;;;;;18.11;23.67;100799.70;108951;1254;59470;-74
2024/03/11 11:14:29;;;;;;;6.00;4.70;;;;;;;18.34;23.58;100801.58;109224;1253;71071;-75
2024/03/11 11:16:57;;;;;;;5.40;4.10;;;;;;;18.55;23.33;100799.69;108822;1253;71504;-74
2024/03/11 11:19:32;;;;;;;7.00;4.10;;;;;;;18.77;23.16;100800.98;108162;1253;72768;-74
2024/03/11 11:22:01;;;;;;;6.30;5.20;;;;;;;18.99;23.01;100797.08;108332;1254;61502;-73
2024/03/11 11:24:39;;;;;;;6.20;4.80;;;;;;;19.16;22.78;100790.59;108614;1254;59217;-74
2024/03/11 11:27:07;;;;;;;4.30;3.90;;;;;;;19.33;22.48;100804.68;109091;1253;73044;-75
2024/03/11 11:29:35;;;;;;;5.00;4.30;;;;;;;19.21;22.08;100803.92;108913;1253;68942;-77
2024/03/11 11:32:11;;;;;;;5.00;3.80;;;;;;;18.80;22.34;100796.69;109004;1254;72751;-77
2024/03/11 11:34:44;;;;;;;6.30;4.20;;;;;;;18.64;22.47;100809.32;108721;1253;59189;-77